Terminal Aerodrome Forecast
Issued by NWS Upton, NY

Home | Current Version | Previous Version | Text Only | Print | Product List | Glossary On
Versions: 1 2 3 4 5 6 7 8 9 10 11 12 13 14 15 16 17 18 19 20 21 22 23 24 25 26
000
FTUS41 KOKX 020548
TAFISP
TAF
KISP 020548Z 0206/0306 29005KT P6SM SCT250
     FM020800 VRB03KT P6SM SCT250
     FM021200 35005KT P6SM BKN250
     FM021800 20010KT P6SM FEW050 BKN250
     FM030000 21005KT P6SM SCT150 BKN250
     FM030300 VRB03KT P6SM SCT150 BKN250=

USA.gov is the U.S. government's official web portal to all federal, state and local government web resources and services.